createdAt,value
2023-02-12T00:01:10.174Z,69.25
2023-02-12T00:03:38.000Z,69.47
2023-02-12T00:06:06.792Z,69.25
2023-02-12T00:08:33.883Z,69.39
2023-02-12T00:11:07.622Z,69.26
2023-02-12T00:13:34.425Z,69.23
2023-02-12T00:16:09.288Z,69.21
2023-02-12T00:18:36.982Z,69.53
2023-02-12T00:21:04.205Z,69.15
2023-02-12T00:23:31.724Z,69.40
2023-02-12T00:25:58.548Z,69.40
2023-02-12T00:28:26.432Z,69.25
2023-02-12T00:30:53.398Z,69.34
2023-02-12T00:33:20.224Z,69.49
2023-02-12T00:35:58.552Z,69.46
2023-02-12T00:38:25.548Z,69.50
2023-02-12T00:40:52.391Z,69.54
2023-02-12T00:43:19.361Z,69.52
2023-02-12T00:45:46.758Z,69.60
2023-02-12T00:48:14.578Z,69.52
2023-02-12T00:50:42.771Z,69.61
2023-02-12T00:53:09.574Z,69.52
2023-02-12T00:55:36.356Z,69.41
2023-02-12T00:58:03.221Z,69.62
2023-02-12T01:00:30.128Z,69.45
2023-02-12T01:02:56.896Z,69.56
2023-02-12T01:05:23.906Z,69.51
2023-02-12T01:07:52.451Z,69.38
2023-02-12T01:10:23.388Z,69.47
2023-02-12T01:12:50.877Z,69.47
2023-02-12T01:15:18.974Z,69.58
2023-02-12T01:17:46.170Z,69.70
2023-02-12T01:20:20.650Z,69.52
2023-02-12T01:22:47.902Z,69.78
2023-02-12T01:25:15.311Z,69.72
2023-02-12T01:27:42.105Z,69.51
2023-02-12T01:30:12.374Z,69.64
2023-02-12T01:32:39.286Z,69.61
2023-02-12T01:35:08.457Z,69.50
2023-02-12T01:37:37.729Z,69.74
2023-02-12T01:40:07.361Z,69.47
2023-02-12T01:42:35.167Z,69.44
2023-02-12T01:45:14.082Z,69.66
2023-02-12T01:47:45.452Z,69.61
2023-02-12T01:50:18.990Z,69.75
2023-02-12T01:52:51.939Z,69.55
2023-02-12T01:55:20.639Z,69.45
2023-02-12T01:57:49.260Z,69.65
2023-02-12T02:00:22.628Z,69.38
2023-02-12T02:02:55.000Z,69.39
2023-02-12T02:05:49.898Z,69.55
2023-02-12T02:08:17.065Z,69.74
2023-02-12T02:10:43.882Z,69.42
2023-02-12T02:13:29.139Z,69.44
2023-02-12T02:16:01.829Z,69.46
2023-02-12T02:18:46.593Z,69.81
2023-02-12T02:21:46.513Z,69.53
2023-02-12T02:24:23.186Z,69.74
2023-02-12T02:28:01.609Z,69.60
2023-02-12T02:30:45.286Z,69.45
2023-02-12T02:33:29.216Z,69.74
2023-02-12T02:36:14.682Z,69.60
2023-02-12T02:38:57.201Z,69.57
2023-02-12T02:41:55.204Z,69.66
2023-02-12T02:44:52.172Z,69.43
2023-02-12T02:47:32.936Z,69.68
2023-02-12T02:50:18.804Z,69.51
2023-02-12T02:53:05.456Z,69.62
2023-02-12T02:55:47.317Z,69.67
2023-02-12T02:58:27.024Z,69.57
2023-02-12T03:01:19.000Z,69.58
2023-02-12T03:04:01.414Z,69.54
2023-02-12T03:06:47.413Z,69.84
2023-02-12T03:09:31.966Z,69.58
2023-02-12T03:12:03.503Z,69.77
2023-02-12T03:14:37.754Z,69.41
2023-02-12T03:17:08.966Z,69.68
2023-02-12T03:19:56.075Z,69.74
2023-02-12T03:22:33.320Z,69.64
2023-02-12T03:25:15.478Z,69.67
2023-02-12T03:27:54.678Z,69.78
2023-02-12T03:30:22.861Z,69.64
2023-02-12T03:33:30.273Z,69.68
2023-02-12T03:36:22.959Z,69.53
2023-02-12T03:38:55.437Z,69.72
2023-02-12T03:41:32.702Z,69.60
2023-02-12T03:44:28.473Z,69.68
2023-02-12T03:47:30.142Z,69.89
2023-02-12T03:50:16.672Z,69.64
2023-02-12T03:52:43.900Z,69.51
2023-02-12T03:55:11.442Z,69.39
2023-02-12T03:57:44.608Z,69.57
2023-02-12T04:00:18.629Z,69.64
2023-02-12T04:02:46.105Z,69.72
2023-02-12T04:05:26.528Z,69.47
2023-02-12T04:07:56.046Z,69.48
2023-02-12T04:10:33.289Z,69.57
2023-02-12T04:13:19.360Z,69.57
2023-02-12T04:16:41.780Z,69.80
2023-02-12T04:19:14.143Z,69.70
2023-02-12T04:21:47.002Z,69.74
2023-02-12T04:24:56.897Z,69.81
2023-02-12T04:28:11.173Z,69.83
2023-02-12T04:30:46.081Z,69.88
2023-02-12T04:33:21.300Z,69.67
2023-02-12T04:35:57.178Z,69.71
2023-02-12T04:38:27.856Z,69.61
2023-02-12T04:40:55.193Z,69.84
2023-02-12T04:43:36.587Z,69.57
2023-02-12T04:46:06.453Z,69.70
2023-02-12T04:48:34.658Z,69.75
2023-02-12T04:51:01.984Z,69.81
2023-02-12T04:53:29.205Z,69.63
2023-02-12T04:55:56.401Z,69.74
2023-02-12T04:58:23.354Z,69.66
2023-02-12T05:00:50.126Z,69.77
2023-02-12T05:03:16.922Z,69.59
2023-02-12T05:05:43.743Z,69.70
2023-02-12T05:08:10.497Z,69.57
2023-02-12T05:10:37.287Z,69.47
2023-02-12T05:13:04.096Z,69.95
2023-02-12T05:15:30.890Z,69.70
2023-02-12T05:17:57.721Z,69.68
2023-02-12T05:20:24.516Z,69.67
2023-02-12T05:22:54.458Z,69.64
2023-02-12T05:25:21.871Z,69.34
2023-02-12T05:27:48.686Z,69.20
2023-02-12T05:30:15.610Z,69.57
2023-02-12T05:32:42.395Z,69.26
2023-02-12T05:35:09.227Z,69.31
2023-02-12T05:37:36.667Z,69.59
2023-02-12T05:40:08.698Z,69.20
2023-02-12T05:42:35.652Z,69.33
2023-02-12T05:45:02.467Z,69.49
2023-02-12T05:47:29.273Z,69.47
2023-02-12T05:49:56.119Z,69.38
2023-02-12T05:52:22.928Z,69.28
2023-02-12T05:54:50.551Z,69.30
2023-02-12T05:57:17.359Z,69.30
2023-02-12T05:59:44.169Z,69.54
2023-02-12T06:02:11.061Z,69.29
2023-02-12T06:04:37.886Z,69.16
2023-02-12T06:07:04.703Z,69.38
2023-02-12T06:09:31.471Z,69.30
2023-02-12T06:11:58.230Z,69.40
2023-02-12T06:14:25.017Z,69.41
2023-02-12T06:16:52.835Z,69.25
2023-02-12T06:19:20.217Z,69.35
2023-02-12T06:21:47.751Z,69.16
2023-02-12T06:24:16.365Z,69.34
2023-02-12T06:26:43.439Z,69.29
2023-02-12T06:29:10.437Z,69.18
2023-02-12T06:31:38.181Z,69.40
2023-02-12T06:34:08.746Z,68.89
2023-02-12T06:36:39.273Z,68.96
2023-02-12T06:39:06.702Z,69.28
2023-02-12T06:41:34.197Z,69.01
2023-02-12T06:44:00.975Z,69.23
2023-02-12T06:46:28.178Z,69.21
2023-02-12T06:48:57.896Z,69.10
2023-02-12T06:51:25.756Z,69.17
2023-02-12T06:53:54.439Z,69.43
2023-02-12T06:56:22.873Z,69.12
2023-02-12T06:58:56.415Z,69.36
2023-02-12T07:01:27.515Z,69.11
2023-02-12T07:04:12.877Z,69.25
2023-02-12T07:06:39.841Z,69.13
2023-02-12T07:09:06.707Z,68.89
2023-02-12T07:11:38.141Z,69.11
2023-02-12T07:14:06.437Z,69.38
2023-02-12T07:16:33.440Z,69.42
2023-02-12T07:19:00.292Z,69.31
2023-02-12T07:21:27.060Z,69.26
2023-02-12T07:23:53.939Z,69.10
2023-02-12T07:26:21.834Z,69.29
2023-02-12T07:28:50.698Z,69.28
2023-02-12T07:31:21.909Z,69.15
2023-02-12T07:33:50.147Z,69.23
2023-02-12T07:36:19.235Z,69.23
2023-02-12T07:38:47.099Z,69.12
2023-02-12T07:41:16.377Z,69.19
2023-02-12T07:43:46.706Z,69.48
2023-02-12T07:46:22.765Z,69.23
2023-02-12T07:48:52.162Z,69.27
2023-02-12T07:51:19.316Z,69.13
2023-02-12T07:53:46.623Z,69.55
2023-02-12T07:56:23.291Z,69.21
2023-02-12T07:58:52.848Z,69.14
2023-02-12T08:01:32.583Z,69.06
2023-02-12T08:04:02.803Z,69.31
2023-02-12T08:06:32.519Z,69.26
2023-02-12T08:09:02.167Z,69.32
2023-02-12T08:11:30.051Z,69.21
2023-02-12T08:13:58.248Z,69.17
2023-02-12T08:16:27.063Z,69.09
2023-02-12T08:18:55.120Z,69.21
2023-02-12T08:21:25.951Z,69.09
2023-02-12T08:23:56.021Z,69.54
2023-02-12T08:26:28.931Z,69.17
2023-02-12T08:29:06.734Z,69.03
2023-02-12T08:31:38.178Z,68.98
2023-02-12T08:34:05.959Z,69.17
2023-02-12T08:36:40.038Z,69.25
2023-02-12T08:39:08.293Z,69.07
2023-02-12T08:41:35.557Z,69.18
2023-02-12T08:44:05.221Z,68.96
2023-02-12T08:46:38.093Z,68.83
2023-02-12T08:49:10.159Z,68.87
2023-02-12T08:51:40.917Z,68.86
2023-02-12T08:54:12.941Z,68.85
2023-02-12T08:56:40.107Z,69.03
2023-02-12T08:59:08.279Z,68.85
2023-02-12T09:01:40.940Z,69.03
2023-02-12T09:04:15.385Z,68.83
2023-02-12T09:06:42.192Z,68.85
2023-02-12T09:09:09.016Z,68.88
2023-02-12T09:11:36.064Z,68.71
2023-02-12T09:14:06.661Z,68.90
2023-02-12T09:19:47.166Z,68.86
2023-02-12T09:22:14.080Z,69.01
2023-02-12T09:24:41.053Z,68.79
2023-02-12T09:27:07.892Z,69.01
2023-02-12T09:29:34.694Z,68.68
2023-02-12T09:32:04.849Z,68.73
2023-02-12T09:34:35.610Z,68.62
2023-02-12T09:37:02.434Z,68.69
2023-02-12T09:39:30.670Z,68.49
2023-02-12T09:42:17.848Z,68.39
2023-02-12T09:45:01.213Z,68.65
2023-02-12T09:47:50.700Z,68.68
2023-02-12T09:50:38.003Z,68.77
2023-02-12T09:53:05.698Z,68.76
2023-02-12T09:55:35.025Z,68.62
2023-02-12T09:58:11.270Z,68.60
2023-02-12T10:00:38.871Z,68.61
2023-02-12T10:03:15.879Z,68.77
2023-02-12T10:05:52.591Z,68.58
2023-02-12T10:08:39.433Z,68.63
2023-02-12T10:15:55.148Z,68.84
2023-02-12T10:18:41.744Z,68.74
2023-02-12T10:21:20.944Z,68.70
2023-02-12T10:24:23.264Z,68.92
2023-02-12T10:26:55.547Z,68.76
2023-02-12T10:29:32.315Z,68.47
2023-02-12T10:32:24.372Z,68.79
2023-02-12T10:34:52.708Z,68.89
2023-02-12T10:37:43.958Z,68.73
2023-02-12T10:40:34.040Z,68.77
2023-02-12T10:43:02.846Z,68.63
2023-02-12T10:45:40.084Z,68.50
2023-02-12T10:48:23.877Z,68.59
2023-02-12T10:51:08.237Z,68.55
2023-02-12T10:53:36.669Z,68.56
2023-02-12T10:56:14.077Z,68.32
2023-02-12T10:59:02.210Z,68.29
2023-02-12T11:01:36.128Z,68.32
2023-02-12T11:04:40.205Z,68.41
2023-02-12T11:07:09.813Z,68.36
2023-02-12T11:09:46.820Z,68.38
2023-02-12T11:12:42.421Z,68.31
2023-02-12T11:15:24.883Z,68.14
2023-02-12T11:18:01.094Z,68.29
2023-02-12T11:20:39.045Z,68.42
2023-02-12T11:23:42.786Z,68.27
2023-02-12T11:26:18.790Z,68.26
2023-02-12T11:29:00.262Z,68.36
2023-02-12T11:31:35.438Z,68.21
2023-02-12T11:34:20.111Z,68.39
2023-02-12T11:36:53.244Z,68.32
2023-02-12T11:39:34.937Z,68.05
2023-02-12T11:42:25.964Z,68.02
2023-02-12T11:44:56.749Z,68.33
2023-02-12T11:47:30.602Z,68.18
2023-02-12T11:50:22.466Z,68.13
2023-02-12T11:52:52.538Z,68.19
2023-02-12T11:55:33.841Z,68.01
2023-02-12T11:58:21.732Z,68.04
2023-02-12T12:01:22.739Z,67.83
2023-02-12T12:04:11.941Z,67.67
2023-02-12T12:06:49.162Z,68.00
2023-02-12T12:09:44.755Z,67.90
2023-02-12T12:12:23.991Z,67.84
2023-02-12T12:15:26.685Z,67.85
2023-02-12T12:18:20.743Z,67.93
2023-02-12T12:21:03.549Z,68.09
2023-02-12T12:23:45.912Z,67.86
2023-02-12T12:26:34.720Z,67.95
2023-02-12T12:29:29.318Z,67.80
2023-02-12T12:32:02.003Z,67.80
2023-02-12T12:34:29.624Z,67.69
2023-02-12T12:37:37.028Z,67.73
2023-02-12T12:40:34.673Z,67.97
2023-02-12T12:43:52.208Z,67.85
2023-02-12T12:46:45.429Z,67.83
2023-02-12T12:49:25.807Z,67.68
2023-02-12T12:52:35.510Z,67.64
2023-02-12T12:55:24.057Z,67.61
2023-02-12T12:58:21.161Z,67.82
2023-02-12T13:01:53.600Z,67.78
2023-02-12T13:04:59.017Z,67.75
2023-02-12T13:07:55.153Z,68.36
2023-02-12T13:10:33.816Z,67.98
2023-02-12T13:13:35.568Z,67.79
2023-02-12T13:16:29.044Z,67.90
2023-02-12T13:19:23.098Z,68.02
2023-02-12T13:22:47.263Z,68.07
2023-02-12T13:25:29.739Z,67.96
2023-02-12T13:27:59.906Z,67.74
2023-02-12T13:30:39.343Z,67.68
2023-02-12T13:33:18.202Z,67.68
2023-02-12T13:35:51.304Z,67.51
2023-02-12T13:38:26.137Z,67.27
2023-02-12T13:40:59.915Z,67.27
2023-02-12T13:44:06.672Z,67.21
2023-02-12T13:46:46.142Z,67.32
2023-02-12T13:49:53.613Z,67.19
2023-02-12T13:52:45.301Z,67.50
2023-02-12T13:55:26.211Z,67.12
2023-02-12T13:58:39.654Z,67.31
2023-02-12T14:01:41.687Z,67.44
2023-02-12T14:04:35.447Z,67.38
2023-02-12T14:07:12.864Z,67.35
2023-02-12T14:09:43.777Z,67.35
2023-02-12T14:12:26.157Z,67.27
2023-02-12T14:15:36.160Z,67.32
2023-02-12T14:18:02.902Z,67.40
2023-02-12T14:20:37.191Z,67.57
2023-02-12T14:23:24.069Z,67.25
2023-02-12T14:26:06.047Z,67.59
2023-02-12T14:29:03.150Z,67.41
2023-02-12T14:31:36.140Z,67.44
2023-02-12T14:34:06.010Z,67.34
2023-02-12T14:36:32.732Z,67.12
2023-02-12T14:39:19.796Z,67.21
2023-02-12T14:41:53.467Z,67.28
2023-02-12T14:44:22.669Z,67.14
2023-02-12T14:46:59.293Z,67.09
2023-02-12T14:49:37.040Z,67.01
2023-02-12T14:52:14.149Z,66.98
2023-02-12T14:54:51.352Z,66.87
2023-02-12T14:57:33.782Z,66.77
2023-02-12T15:00:36.603Z,67.12
2023-02-12T15:03:14.435Z,67.04
2023-02-12T15:06:04.733Z,66.84
2023-02-12T15:08:37.165Z,66.97
2023-02-12T15:11:21.559Z,67.11
2023-02-12T15:14:16.068Z,66.88
2023-02-12T15:17:08.444Z,66.93
2023-02-12T15:19:57.238Z,66.95
2023-02-12T15:22:26.806Z,67.10
2023-02-12T15:24:53.624Z,67.01
2023-02-12T15:27:22.002Z,66.99
2023-02-12T15:29:55.224Z,66.91
2023-02-12T15:32:25.819Z,66.87
2023-02-12T15:34:54.335Z,66.82
2023-02-12T15:37:30.643Z,66.78
2023-02-12T15:40:01.298Z,66.74
2023-02-12T15:42:42.680Z,66.77
2023-02-12T18:09:46.607Z,68.30
2023-02-12T18:12:13.566Z,68.13
2023-02-12T18:14:41.951Z,67.88
2023-02-12T18:17:08.767Z,67.89
2023-02-12T18:19:35.713Z,68.02
2023-02-12T18:22:03.697Z,67.74
2023-02-12T18:24:33.186Z,67.82
2023-02-12T18:27:00.057Z,67.93
2023-02-12T18:29:26.868Z,67.80
2023-02-12T18:31:55.161Z,67.79
2023-02-12T18:34:24.908Z,67.90
2023-02-12T18:36:51.846Z,67.55
2023-02-12T18:39:18.754Z,67.74
2023-02-12T18:41:46.311Z,67.54
2023-02-12T18:44:14.347Z,67.69
2023-02-12T18:46:41.336Z,67.62
2023-02-12T18:49:08.422Z,67.52
2023-02-12T18:51:38.005Z,67.33
2023-02-12T18:54:08.748Z,67.54
2023-02-12T18:56:40.043Z,67.51
2023-02-12T18:59:08.020Z,67.43
2023-02-12T19:01:36.211Z,67.41
2023-02-12T19:04:06.286Z,67.56
2023-02-12T19:06:37.721Z,67.45
2023-02-12T19:09:04.617Z,67.46
2023-02-12T19:11:32.246Z,67.23
2023-02-12T19:13:59.356Z,67.35
2023-02-12T19:16:27.466Z,67.37
2023-02-12T19:18:58.340Z,67.34
2023-02-12T19:21:26.369Z,67.33
2023-02-12T19:23:55.398Z,67.11
2023-02-12T19:26:23.490Z,67.06
2023-02-12T19:31:37.981Z,67.17
2023-02-12T19:34:08.737Z,67.39
2023-02-12T19:36:36.836Z,67.34
2023-02-12T19:39:05.932Z,67.44
2023-02-12T19:41:40.477Z,67.30
2023-02-12T19:44:13.404Z,67.13
2023-02-12T19:46:40.848Z,67.35
2023-02-12T19:49:14.097Z,67.28
2023-02-12T19:51:41.651Z,67.39
2023-02-12T19:54:10.283Z,67.76
2023-02-12T19:56:37.966Z,67.61
2023-02-12T19:59:06.393Z,67.34
2023-02-12T20:01:34.525Z,67.40
2023-02-12T20:04:02.216Z,67.34
2023-02-12T20:06:34.050Z,67.48
2023-02-12T20:09:01.199Z,67.47
2023-02-12T20:11:31.270Z,67.53
2023-02-12T20:13:59.038Z,67.58
2023-02-12T20:16:31.157Z,67.43
2023-02-12T20:19:02.904Z,67.58
2023-02-12T20:21:29.817Z,67.57
2023-02-12T20:23:58.222Z,67.40
2023-02-12T20:26:25.622Z,67.57
2023-02-12T20:28:52.464Z,67.60
2023-02-12T20:31:29.046Z,67.56
2023-02-12T20:33:59.967Z,67.51
2023-02-12T20:36:30.714Z,67.27
2023-02-12T20:38:57.877Z,67.33
2023-02-12T20:41:26.775Z,67.41
2023-02-12T20:43:54.508Z,67.24
2023-02-12T20:46:23.461Z,67.31
2023-02-12T20:48:50.396Z,67.49
2023-02-12T20:51:24.464Z,67.01
2023-02-12T20:53:52.180Z,67.42
2023-02-12T20:56:25.774Z,67.36
2023-02-12T20:58:53.700Z,67.36
2023-02-12T21:01:25.462Z,67.42
2023-02-12T21:03:54.039Z,67.26
2023-02-12T21:06:22.875Z,67.37
2023-02-12T21:08:51.176Z,67.35
2023-02-12T21:11:22.472Z,67.29
2023-02-12T21:13:59.406Z,67.31
2023-02-12T21:16:36.865Z,67.49
2023-02-12T21:19:04.234Z,67.63
2023-02-12T21:21:34.940Z,67.28
2023-02-12T21:24:05.645Z,67.25
2023-02-12T21:26:33.788Z,67.11
2023-02-12T21:29:02.139Z,67.24
2023-02-12T21:31:38.774Z,67.39
2023-02-12T21:34:08.351Z,67.15
2023-02-12T21:36:39.066Z,67.36
2023-02-12T21:39:08.821Z,67.04
2023-02-12T21:41:39.688Z,67.30
2023-02-12T21:44:18.504Z,67.05
2023-02-12T21:46:45.706Z,67.19
2023-02-12T21:49:17.380Z,67.07
2023-02-12T21:51:45.252Z,67.27
2023-02-12T21:54:17.904Z,67.31
2023-02-12T21:56:47.185Z,67.28
2023-02-12T21:59:15.141Z,67.24
2023-02-12T22:01:50.934Z,67.12
2023-02-12T22:04:19.459Z,67.19
2023-02-12T22:06:50.549Z,67.39
2023-02-12T22:09:20.948Z,67.29
2023-02-12T22:11:47.768Z,67.09
2023-02-12T22:14:17.167Z,67.35
2023-02-12T22:16:45.281Z,67.44
2023-02-12T22:19:12.313Z,67.64
2023-02-12T22:21:41.579Z,67.52
2023-02-12T22:24:15.008Z,67.48
2023-02-12T22:26:42.704Z,67.39
2023-02-12T22:29:14.148Z,67.53
2023-02-12T22:31:43.920Z,67.24
2023-02-12T22:34:15.180Z,67.53
2023-02-12T22:36:43.323Z,67.33
2023-02-12T22:39:12.780Z,67.19
2023-02-12T22:41:39.799Z,67.46
2023-02-12T22:44:06.608Z,67.12
2023-02-12T22:46:35.141Z,67.35
2023-02-12T22:49:01.953Z,67.37
2023-02-12T22:51:31.752Z,67.33
2023-02-12T22:53:58.851Z,66.94
2023-02-12T22:56:26.325Z,67.23
2023-02-12T22:58:58.558Z,66.95
2023-02-12T23:01:27.108Z,67.32
2023-02-12T23:03:54.692Z,66.99
2023-02-12T23:06:26.722Z,67.34
2023-02-12T23:08:58.923Z,67.27
2023-02-12T23:11:28.602Z,67.39
2023-02-12T23:13:55.912Z,67.34
2023-02-12T23:16:22.744Z,67.17
2023-02-12T23:18:53.204Z,67.09
2023-02-12T23:21:19.996Z,67.07
2023-02-12T23:23:46.748Z,67.18
2023-02-12T23:26:13.521Z,67.19
2023-02-12T23:28:40.321Z,67.36
2023-02-12T23:31:07.401Z,67.20
2023-02-12T23:33:34.245Z,67.06
2023-02-12T23:36:01.057Z,67.36
2023-02-12T23:38:27.810Z,67.13
2023-02-12T23:40:54.729Z,67.02
2023-02-12T23:43:21.536Z,67.21
2023-02-12T23:45:48.425Z,67.07
2023-02-12T23:48:15.347Z,66.92
2023-02-12T23:50:42.482Z,67.01
2023-02-12T23:53:10.946Z,66.91
2023-02-12T23:55:39.424Z,66.99
2023-02-12T23:58:07.309Z,67.21
